createdAt,value
2022-08-29T00:02:12.550Z,16.50
2022-08-29T00:04:40.770Z,16.50
2022-08-29T00:07:11.207Z,16.50
2022-08-29T00:09:39.312Z,16.60
2022-08-29T00:12:08.364Z,16.60
2022-08-29T00:14:36.840Z,16.60
2022-08-29T00:17:05.368Z,16.60
2022-08-29T00:19:33.703Z,16.60
2022-08-29T00:22:01.743Z,16.50
2022-08-29T00:24:31.400Z,16.40
2022-08-29T00:27:00.382Z,16.40
2022-08-29T00:29:29.576Z,16.30
2022-08-29T00:31:57.785Z,16.30
2022-08-29T00:34:26.271Z,16.20
2022-08-29T00:36:54.929Z,16.20
2022-08-29T00:39:23.817Z,16.10
2022-08-29T00:41:53.303Z,16.10
2022-08-29T00:44:21.671Z,16.10
2022-08-29T00:46:53.783Z,16.00
2022-08-29T00:49:34.015Z,16.00
2022-08-29T00:52:10.901Z,15.90
2022-08-29T00:54:39.980Z,15.90
2022-08-29T00:57:09.992Z,15.80
2022-08-29T00:59:40.854Z,15.70
2022-08-29T01:02:11.203Z,15.60
2022-08-29T01:04:40.568Z,15.60
2022-08-29T01:07:09.869Z,15.40
2022-08-29T01:09:39.787Z,15.30
2022-08-29T01:12:18.225Z,15.30
2022-08-29T01:14:51.359Z,15.30
2022-08-29T01:17:23.570Z,15.20
2022-08-29T01:19:57.461Z,15.10
2022-08-29T01:22:57.502Z,15.00
2022-08-29T01:25:31.399Z,15.00
2022-08-29T01:28:06.042Z,14.90
2022-08-29T01:30:34.554Z,14.90
2022-08-29T01:33:03.126Z,14.90
2022-08-29T01:35:33.259Z,14.90
2022-08-29T01:38:02.119Z,15.00
2022-08-29T01:40:32.375Z,15.00
2022-08-29T01:43:01.083Z,15.00
2022-08-29T01:45:29.264Z,15.10
2022-08-29T01:47:59.908Z,15.10
2022-08-29T01:50:32.879Z,15.00
2022-08-29T01:53:01.177Z,15.00
2022-08-29T01:55:29.418Z,14.90
2022-08-29T01:57:58.928Z,14.90
2022-08-29T02:00:27.114Z,14.80
2022-08-29T02:02:56.865Z,14.80
2022-08-29T02:05:25.044Z,14.80
2022-08-29T02:07:53.317Z,14.70
2022-08-29T02:10:21.799Z,14.70
2022-08-29T02:12:50.081Z,14.70
2022-08-29T02:15:19.479Z,14.70
2022-08-29T02:17:48.756Z,14.70
2022-08-29T02:20:17.190Z,14.70
2022-08-29T02:22:45.762Z,14.70
2022-08-29T02:25:31.343Z,14.70
2022-08-29T02:27:59.862Z,14.70
2022-08-29T02:30:29.362Z,14.60
2022-08-29T02:32:57.622Z,14.60
2022-08-29T02:35:26.038Z,14.50
2022-08-29T02:37:56.395Z,14.50
2022-08-29T02:40:31.380Z,14.50
2022-08-29T02:43:01.383Z,14.50
2022-08-29T02:45:31.562Z,14.50
2022-08-29T02:48:00.104Z,14.50
2022-08-29T02:50:28.267Z,14.50
2022-08-29T02:52:56.634Z,14.60
2022-08-29T02:55:26.224Z,14.70
2022-08-29T02:57:55.219Z,14.80
2022-08-29T03:00:26.808Z,14.90
2022-08-29T03:02:58.194Z,15.00
2022-08-29T03:05:29.892Z,15.00
2022-08-29T03:07:59.148Z,15.10
2022-08-29T03:10:27.732Z,15.10
2022-08-29T03:12:56.799Z,15.20
2022-08-29T03:15:25.411Z,15.20
2022-08-29T03:17:54.582Z,15.30
2022-08-29T03:20:26.008Z,15.40
2022-08-29T03:22:55.669Z,15.40
2022-08-29T03:25:25.585Z,15.50
2022-08-29T03:27:53.834Z,15.60
2022-08-29T03:30:24.070Z,15.70
2022-08-29T03:32:53.147Z,15.70
2022-08-29T03:35:22.505Z,15.70
2022-08-29T03:37:52.771Z,15.70
2022-08-29T03:40:21.137Z,15.70
2022-08-29T03:42:49.746Z,15.70
2022-08-29T03:45:19.065Z,15.70
2022-08-29T03:47:47.555Z,15.70
2022-08-29T03:50:19.281Z,15.70
2022-08-29T03:52:48.071Z,15.70
2022-08-29T03:55:17.934Z,15.70
2022-08-29T03:57:46.199Z,15.80
2022-08-29T04:00:17.721Z,15.80
2022-08-29T04:02:47.728Z,15.80
2022-08-29T04:05:18.760Z,15.80
2022-08-29T04:07:49.612Z,15.70
2022-08-29T04:10:23.750Z,15.70
2022-08-29T04:12:54.859Z,15.70
2022-08-29T04:15:24.430Z,15.70
2022-08-29T04:17:54.266Z,15.70
2022-08-29T04:20:25.579Z,15.70
2022-08-29T04:22:55.361Z,15.80
2022-08-29T04:25:27.132Z,15.80
2022-08-29T04:27:56.122Z,15.80
2022-08-29T04:30:26.212Z,15.80
2022-08-29T04:32:54.957Z,15.90
2022-08-29T04:35:23.167Z,16.10
2022-08-29T04:37:51.570Z,16.10
2022-08-29T04:40:23.015Z,16.20
2022-08-29T04:42:53.022Z,16.30
2022-08-29T04:45:23.541Z,16.40
2022-08-29T04:47:52.701Z,16.50
2022-08-29T04:50:22.785Z,16.50
2022-08-29T04:52:53.422Z,16.60
2022-08-29T04:55:25.607Z,16.60
2022-08-29T04:57:57.429Z,16.70
2022-08-29T05:00:28.702Z,16.70
2022-08-29T05:02:59.535Z,16.70
2022-08-29T05:05:27.844Z,16.70
2022-08-29T05:07:56.245Z,16.70
2022-08-29T05:10:24.602Z,16.80
2022-08-29T05:12:52.779Z,16.80
2022-08-29T05:15:22.444Z,16.80
2022-08-29T05:17:50.586Z,16.80
2022-08-29T05:20:19.381Z,16.90
2022-08-29T05:22:47.494Z,16.80
2022-08-29T05:25:18.478Z,16.90
2022-08-29T05:27:47.621Z,16.90
2022-08-29T05:30:16.458Z,16.90
2022-08-29T05:33:03.883Z,17.00
2022-08-29T05:35:32.326Z,17.00
2022-08-29T05:38:00.563Z,17.00
2022-08-29T05:40:29.190Z,17.00
2022-08-29T05:42:57.555Z,17.10
2022-08-29T05:45:26.600Z,17.10
2022-08-29T05:47:56.351Z,17.20
2022-08-29T05:50:26.067Z,17.20
2022-08-29T05:52:57.247Z,17.30
2022-08-29T05:55:26.371Z,17.40
2022-08-29T05:57:55.300Z,17.50
2022-08-29T06:00:23.602Z,17.60
2022-08-29T06:02:51.958Z,17.70
2022-08-29T06:05:20.342Z,17.70
2022-08-29T06:07:49.771Z,17.90
2022-08-29T06:10:18.217Z,18.10
2022-08-29T06:12:46.351Z,18.20
2022-08-29T06:15:14.894Z,18.30
2022-08-29T06:17:42.973Z,18.40
2022-08-29T06:20:12.159Z,18.50
2022-08-29T06:22:40.736Z,18.60
2022-08-29T06:25:37.373Z,18.70
2022-08-29T06:27:59.320Z,18.80
2022-08-29T06:30:27.782Z,19.00
2022-08-29T06:32:55.951Z,19.10
2022-08-29T06:35:24.293Z,19.10
2022-08-29T06:37:53.558Z,19.10
2022-08-29T06:40:23.280Z,19.20
2022-08-29T06:42:51.676Z,19.20
2022-08-29T06:45:19.868Z,19.20
2022-08-29T06:47:48.788Z,19.20
2022-08-29T06:50:18.264Z,19.30
2022-08-29T06:52:47.183Z,19.40
2022-08-29T06:55:15.992Z,19.60
2022-08-29T06:57:48.461Z,19.80
2022-08-29T07:00:22.171Z,20.10
2022-08-29T07:02:51.371Z,20.30
2022-08-29T07:05:21.697Z,20.50
2022-08-29T07:07:50.198Z,20.60
2022-08-29T07:10:22.557Z,20.80
2022-08-29T07:12:52.516Z,20.80
2022-08-29T07:15:22.426Z,20.80
2022-08-29T07:17:51.041Z,20.80
2022-08-29T07:20:19.325Z,20.90
2022-08-29T07:22:51.487Z,20.90
2022-08-29T07:25:21.314Z,21.10
2022-08-29T07:27:53.411Z,21.30
2022-08-29T07:30:23.535Z,21.70
2022-08-29T07:32:51.872Z,22.70
2022-08-29T07:35:30.158Z,23.70
2022-08-29T07:37:59.073Z,24.40
2022-08-29T07:40:27.459Z,24.90
2022-08-29T07:42:55.848Z,25.20
2022-08-29T07:45:25.431Z,25.90
2022-08-29T07:47:53.903Z,27.60
2022-08-29T07:50:22.515Z,29.80
2022-08-29T07:52:52.428Z,31.20
2022-08-29T07:55:22.018Z,32.80
2022-08-29T07:57:52.605Z,34.70
2022-08-29T08:00:21.824Z,36.40
2022-08-29T08:02:53.389Z,37.90
2022-08-29T08:05:21.450Z,39.40
2022-08-29T08:07:55.651Z,40.40
2022-08-29T08:10:24.659Z,41.10
2022-08-29T08:12:52.878Z,41.70
2022-08-29T08:15:22.826Z,41.50
2022-08-29T08:17:52.396Z,40.40
2022-08-29T08:20:20.780Z,39.10
2022-08-29T08:22:52.052Z,37.90
2022-08-29T08:25:24.294Z,36.80
2022-08-29T08:27:52.907Z,35.60
2022-08-29T08:30:21.832Z,34.60
2022-08-29T08:32:56.240Z,35.00
2022-08-29T08:35:24.811Z,35.80
2022-08-29T08:37:53.364Z,35.80
2022-08-29T08:40:26.962Z,35.30
2022-08-29T08:43:00.403Z,34.60
2022-08-29T08:45:34.098Z,34.00
2022-08-29T08:48:10.265Z,33.50
2022-08-29T08:50:43.586Z,33.10
2022-08-29T08:53:18.020Z,33.00
2022-08-29T08:55:49.806Z,33.10
2022-08-29T08:58:33.334Z,33.30
2022-08-29T09:01:14.301Z,33.50
2022-08-29T09:04:13.183Z,34.50
2022-08-29T09:06:55.105Z,36.00
2022-08-29T09:09:36.382Z,37.10
2022-08-29T09:12:16.756Z,37.70
2022-08-29T09:14:59.707Z,37.60
2022-08-29T09:17:37.029Z,37.30
2022-08-29T09:20:11.068Z,36.80
2022-08-29T09:22:41.649Z,36.40
2022-08-29T09:25:12.319Z,35.90
2022-08-29T09:27:40.728Z,35.40
2022-08-29T09:30:12.458Z,34.90
2022-08-29T09:32:57.883Z,34.70
2022-08-29T09:35:34.650Z,34.40
2022-08-29T09:38:05.075Z,34.20
2022-08-29T09:41:02.076Z,34.20
2022-08-29T09:43:50.357Z,34.30
2022-08-29T09:46:23.555Z,34.50
2022-08-29T09:48:54.025Z,34.40
2022-08-29T09:51:28.402Z,34.00
2022-08-29T09:54:12.780Z,33.70
2022-08-29T09:56:49.647Z,33.40
2022-08-29T09:59:25.320Z,33.10
2022-08-29T10:02:20.665Z,32.70
2022-08-29T10:04:51.830Z,32.40
2022-08-29T10:07:24.084Z,32.20
2022-08-29T10:10:00.391Z,31.90
2022-08-29T10:12:36.609Z,31.90
2022-08-29T10:15:09.719Z,32.20
2022-08-29T10:17:59.384Z,33.00
2022-08-29T10:20:36.475Z,34.20
2022-08-29T10:23:10.591Z,35.50
2022-08-29T10:25:48.040Z,36.90
2022-08-29T10:28:24.525Z,37.70
2022-08-29T10:31:00.673Z,38.10
2022-08-29T10:33:47.622Z,38.30
2022-08-29T10:36:20.002Z,38.60
2022-08-29T10:38:55.305Z,38.70
2022-08-29T10:41:34.254Z,38.90
2022-08-29T10:44:20.275Z,39.00
2022-08-29T10:47:12.920Z,39.00
2022-08-29T10:49:57.821Z,39.20
2022-08-29T10:52:31.549Z,38.60
2022-08-29T10:55:12.125Z,38.40
2022-08-29T10:57:54.293Z,38.70
2022-08-29T11:00:25.466Z,39.30
2022-08-29T11:02:59.245Z,39.90
2022-08-29T11:05:30.346Z,40.90
2022-08-29T11:08:05.712Z,42.10
2022-08-29T11:10:40.664Z,43.20
2022-08-29T11:13:13.242Z,44.10
2022-08-29T11:15:45.918Z,45.00
2022-08-29T11:18:24.751Z,45.50
2022-08-29T11:20:58.002Z,46.50
2022-08-29T11:23:33.553Z,47.60
2022-08-29T11:26:08.570Z,47.70
2022-08-29T11:31:23.144Z,47.90
2022-08-29T11:34:01.219Z,47.90
2022-08-29T11:36:44.087Z,47.50
2022-08-29T11:39:40.982Z,47.00
2022-08-29T11:42:13.340Z,45.90
2022-08-29T11:44:45.517Z,44.20
2022-08-29T11:47:40.780Z,42.80
2022-08-29T11:50:24.650Z,41.70
2022-08-29T11:52:54.736Z,40.80
2022-08-29T11:55:35.832Z,40.20
2022-08-29T11:58:43.007Z,40.80
2022-08-29T12:01:53.057Z,41.70
2022-08-29T12:04:54.044Z,41.60
2022-08-29T12:07:33.514Z,40.00
2022-08-29T12:10:03.631Z,38.50
2022-08-29T12:12:47.324Z,37.10
2022-08-29T12:15:51.972Z,37.00
2022-08-29T12:18:42.327Z,38.70
2022-08-29T12:21:44.420Z,41.00
2022-08-29T12:24:30.278Z,43.00
2022-08-29T12:26:59.187Z,44.70
2022-08-29T12:29:30.960Z,45.80
2022-08-29T12:32:23.820Z,47.00
2022-08-29T12:35:20.105Z,47.70
2022-08-29T12:38:03.287Z,48.20
2022-08-29T12:40:43.443Z,47.70
2022-08-29T12:43:27.735Z,47.40
2022-08-29T12:45:57.495Z,47.70
2022-08-29T12:48:33.416Z,48.10
2022-08-29T12:51:02.590Z,48.50
2022-08-29T12:53:33.384Z,48.50
2022-08-29T12:56:05.084Z,48.80
2022-08-29T12:58:37.849Z,49.00
2022-08-29T13:01:08.898Z,49.30
2022-08-29T13:03:38.343Z,49.40
2022-08-29T13:06:11.522Z,49.40
2022-08-29T13:08:41.129Z,49.00
2022-08-29T13:11:11.681Z,48.40
2022-08-29T13:13:40.034Z,47.80
2022-08-29T13:16:22.930Z,46.80
2022-08-29T13:19:07.720Z,46.30
2022-08-29T13:21:38.774Z,46.00
2022-08-29T13:24:13.481Z,45.40
2022-08-29T13:27:01.070Z,44.50
2022-08-29T13:29:36.962Z,43.40
2022-08-29T13:32:27.597Z,42.00
2022-08-29T13:35:07.354Z,40.20
2022-08-29T13:37:37.698Z,38.60
2022-08-29T13:40:32.292Z,37.30
2022-08-29T13:43:01.928Z,36.00
2022-08-29T13:45:30.556Z,34.90
2022-08-29T13:48:14.063Z,34.10
2022-08-29T13:50:43.590Z,33.20
2022-08-29T13:53:11.936Z,32.40
2022-08-29T13:55:43.003Z,31.90
2022-08-29T13:58:14.639Z,31.50
2022-08-29T14:00:43.890Z,31.10
2022-08-29T14:03:13.446Z,30.80
2022-08-29T14:05:43.892Z,30.70
2022-08-29T14:08:13.500Z,30.50
2022-08-29T14:10:41.850Z,30.50
2022-08-29T14:13:10.073Z,30.60
2022-08-29T14:15:39.281Z,30.70
2022-08-29T14:18:07.565Z,30.70
2022-08-29T14:20:37.238Z,30.60
2022-08-29T14:23:07.182Z,30.40
2022-08-29T14:25:35.392Z,30.10
2022-08-29T14:28:03.887Z,29.80
2022-08-29T14:30:32.487Z,29.50
2022-08-29T14:33:00.532Z,29.00
2022-08-29T14:35:31.586Z,28.60
2022-08-29T14:38:00.779Z,28.30
2022-08-29T14:40:32.351Z,27.90
2022-08-29T14:43:01.718Z,27.50
2022-08-29T14:45:31.286Z,27.10
2022-08-29T14:48:00.675Z,26.80
2022-08-29T14:50:28.907Z,26.60
2022-08-29T14:52:57.049Z,26.50
2022-08-29T14:55:25.389Z,26.40
2022-08-29T14:57:54.994Z,26.40
2022-08-29T15:00:25.836Z,26.30
2022-08-29T15:02:54.301Z,26.30
2022-08-29T15:05:23.455Z,26.30
2022-08-29T15:07:52.655Z,26.20
2022-08-29T15:10:23.321Z,26.10
2022-08-29T15:12:51.930Z,26.10
2022-08-29T15:15:29.180Z,25.90
2022-08-29T15:17:57.737Z,25.70
2022-08-29T15:20:46.192Z,25.50
2022-08-29T15:23:14.531Z,25.30
2022-08-29T15:25:44.935Z,25.20
2022-08-29T15:28:20.183Z,25.00
2022-08-29T15:30:49.702Z,24.80
2022-08-29T15:33:18.007Z,24.70
2022-08-29T15:35:46.427Z,24.50
2022-08-29T15:38:14.844Z,24.50
2022-08-29T15:40:43.282Z,24.40
2022-08-29T15:43:11.821Z,24.40
2022-08-29T15:45:40.295Z,24.30
2022-08-29T15:48:11.855Z,24.20
2022-08-29T15:50:42.309Z,24.10
2022-08-29T15:53:10.545Z,24.10
2022-08-29T15:55:42.514Z,24.00
2022-08-29T15:58:12.767Z,24.10
2022-08-29T16:00:44.048Z,24.20
2022-08-29T16:03:13.781Z,24.30
2022-08-29T16:05:41.893Z,24.30
2022-08-29T16:08:16.583Z,24.30
2022-08-29T16:10:46.412Z,24.20
2022-08-29T16:13:14.585Z,24.10
2022-08-29T16:15:43.672Z,23.90
2022-08-29T16:18:13.308Z,23.70
2022-08-29T16:20:41.838Z,23.50
2022-08-29T16:23:12.709Z,23.30
2022-08-29T16:25:41.437Z,23.20
2022-08-29T16:28:12.552Z,23.10
2022-08-29T16:30:46.159Z,23.00
2022-08-29T16:33:16.318Z,23.00
2022-08-29T16:35:44.731Z,22.90
2022-08-29T16:38:13.040Z,22.80
2022-08-29T16:40:41.543Z,22.70
2022-08-29T16:43:10.457Z,22.60
2022-08-29T16:45:39.208Z,22.40
2022-08-29T16:48:14.771Z,22.20
2022-08-29T16:50:47.116Z,22.10
2022-08-29T16:53:15.695Z,22.00
2022-08-29T16:55:46.034Z,21.90
2022-08-29T16:58:31.464Z,21.80
2022-08-29T17:01:01.937Z,21.60
2022-08-29T17:03:30.016Z,21.50
2022-08-29T17:06:00.029Z,21.30
2022-08-29T17:08:27.084Z,21.30
2022-08-29T17:10:54.316Z,21.10
2022-08-29T17:13:21.408Z,21.10
2022-08-29T17:15:48.519Z,21.00
2022-08-29T17:18:16.948Z,20.90
2022-08-29T17:20:46.385Z,20.90
2022-08-29T17:23:16.819Z,20.90
2022-08-29T17:25:44.974Z,20.80
2022-08-29T17:28:27.884Z,20.70
2022-08-29T17:30:57.540Z,20.60
2022-08-29T17:33:26.308Z,20.50
2022-08-29T17:35:54.921Z,20.40
2022-08-29T17:38:24.584Z,20.30
2022-08-29T17:40:58.528Z,20.30
2022-08-29T17:43:28.145Z,20.10
2022-08-29T17:45:57.511Z,20.00
2022-08-29T17:48:29.066Z,20.00
2022-08-29T17:50:57.369Z,19.80
2022-08-29T17:53:27.452Z,19.70
2022-08-29T17:55:56.270Z,19.60
2022-08-29T17:58:24.470Z,19.50
2022-08-29T18:00:54.099Z,19.50
2022-08-29T18:03:22.211Z,19.40
2022-08-29T18:05:50.433Z,19.30
2022-08-29T18:08:18.556Z,19.20
2022-08-29T18:10:48.179Z,19.20
2022-08-29T18:13:21.019Z,19.10
2022-08-29T18:15:51.566Z,19.10
2022-08-29T18:18:21.697Z,19.00
2022-08-29T18:20:49.991Z,19.00
2022-08-29T18:23:18.194Z,18.90
2022-08-29T18:25:47.834Z,18.90
2022-08-29T18:28:16.220Z,18.80
2022-08-29T18:30:44.530Z,18.70
2022-08-29T18:33:13.247Z,18.70
2022-08-29T18:35:41.828Z,18.60
2022-08-29T18:38:10.584Z,18.60
2022-08-29T18:40:40.015Z,18.50
2022-08-29T18:43:10.151Z,18.50
2022-08-29T18:45:40.225Z,18.40
2022-08-29T18:48:08.845Z,18.40
2022-08-29T18:50:37.599Z,18.30
2022-08-29T18:53:11.361Z,18.30
2022-08-29T18:55:40.097Z,18.20
2022-08-29T18:58:10.285Z,18.20
2022-08-29T19:00:39.479Z,18.10
2022-08-29T19:03:07.826Z,18.10
2022-08-29T19:05:36.795Z,18.10
2022-08-29T19:08:05.839Z,18.10
2022-08-29T19:10:34.222Z,18.10
2022-08-29T19:13:02.805Z,18.10
2022-08-29T19:15:32.302Z,18.10
2022-08-29T19:18:00.615Z,18.10
2022-08-29T19:20:46.199Z,18.10
2022-08-29T19:23:14.625Z,18.10
2022-08-29T19:25:43.175Z,18.00
2022-08-29T19:28:13.149Z,18.00
2022-08-29T19:30:43.112Z,18.00
2022-08-29T19:33:12.256Z,18.00
2022-08-29T19:35:40.706Z,18.00
2022-08-29T19:38:10.004Z,17.90
2022-08-29T19:40:39.520Z,17.80
2022-08-29T19:45:58.010Z,17.70
2022-08-29T19:48:27.830Z,17.60
2022-08-29T19:50:56.555Z,17.50
2022-08-29T19:53:26.893Z,17.50
2022-08-29T19:55:57.629Z,17.40
2022-08-29T19:58:31.556Z,17.40
2022-08-29T20:01:02.641Z,17.30
2022-08-29T20:03:31.966Z,17.20
2022-08-29T20:06:05.661Z,17.20
2022-08-29T20:08:35.243Z,17.10
2022-08-29T20:11:06.624Z,17.00
2022-08-29T20:13:36.210Z,17.00
2022-08-29T20:16:12.226Z,17.00
2022-08-29T20:18:41.142Z,16.90
2022-08-29T20:21:09.670Z,16.90
2022-08-29T20:23:38.870Z,16.80
2022-08-29T20:26:12.862Z,16.80
2022-08-29T20:28:41.825Z,16.70
2022-08-29T20:31:11.547Z,16.70
2022-08-29T20:33:41.443Z,16.70
2022-08-29T20:36:27.279Z,16.60
2022-08-29T20:38:55.670Z,16.60
2022-08-29T20:41:23.943Z,16.60
2022-08-29T20:43:52.316Z,16.50
2022-08-29T20:46:21.953Z,16.60
2022-08-29T20:48:50.268Z,16.50
2022-08-29T20:51:18.383Z,16.50
2022-08-29T20:53:46.949Z,16.50
2022-08-29T20:56:15.239Z,16.40
2022-08-29T20:58:43.678Z,16.40
2022-08-29T21:01:11.836Z,16.40
2022-08-29T21:03:58.691Z,16.40
2022-08-29T21:06:27.084Z,16.40
2022-08-29T21:08:55.974Z,16.30
2022-08-29T21:11:24.472Z,16.30
2022-08-29T21:13:53.449Z,16.30
2022-08-29T21:16:22.219Z,16.30
2022-08-29T21:18:53.370Z,16.20
2022-08-29T21:21:24.694Z,16.20
2022-08-29T21:23:53.354Z,16.20
2022-08-29T21:26:21.723Z,16.10
2022-08-29T21:28:49.932Z,16.10
2022-08-29T21:31:19.546Z,16.00
2022-08-29T21:33:47.843Z,16.00
2022-08-29T21:36:19.351Z,16.00
2022-08-29T21:38:48.785Z,15.90
2022-08-29T21:41:16.884Z,15.90
2022-08-29T21:43:45.236Z,15.80
2022-08-29T21:46:17.823Z,15.80
2022-08-29T21:48:46.919Z,15.70
2022-08-29T21:51:18.827Z,15.60
2022-08-29T21:53:49.296Z,15.60
2022-08-29T21:56:18.152Z,15.50
2022-08-29T21:58:49.661Z,15.50
2022-08-29T22:01:18.217Z,15.40
2022-08-29T22:03:50.391Z,15.30
2022-08-29T22:06:19.106Z,15.30
2022-08-29T22:08:49.012Z,15.20
2022-08-29T22:11:22.145Z,15.10
2022-08-29T22:13:51.207Z,15.10
2022-08-29T22:16:31.071Z,15.00
2022-08-29T22:19:02.472Z,15.00
2022-08-29T22:21:33.655Z,14.90
2022-08-29T22:24:03.911Z,14.80
2022-08-29T22:26:32.251Z,14.80
2022-08-29T22:29:00.780Z,14.70
2022-08-29T22:31:29.335Z,14.70
2022-08-29T22:33:57.461Z,14.60
2022-08-29T22:36:25.936Z,14.60
2022-08-29T22:38:56.598Z,14.60
2022-08-29T22:41:26.326Z,14.60
2022-08-29T22:44:19.877Z,14.60
2022-08-29T22:46:44.830Z,14.60
2022-08-29T22:49:13.846Z,14.50
2022-08-29T22:51:41.917Z,14.50
2022-08-29T22:54:27.882Z,14.50
2022-08-29T22:56:57.345Z,14.50
2022-08-29T22:59:25.593Z,14.40
2022-08-29T23:01:53.992Z,14.40
2022-08-29T23:04:22.215Z,14.30
2022-08-29T23:06:50.441Z,14.30
2022-08-29T23:09:19.105Z,14.30
2022-08-29T23:11:47.332Z,14.20
2022-08-29T23:14:17.113Z,14.20
2022-08-29T23:16:49.264Z,14.10
2022-08-29T23:19:17.781Z,14.10
2022-08-29T23:21:46.528Z,14.10
2022-08-29T23:24:14.654Z,14.00
2022-08-29T23:26:43.527Z,14.00
2022-08-29T23:29:11.787Z,14.00
2022-08-29T23:31:41.656Z,13.90
2022-08-29T23:34:09.688Z,13.90
2022-08-29T23:36:38.009Z,13.90
2022-08-29T23:39:06.137Z,13.80
2022-08-29T23:41:35.520Z,13.80
2022-08-29T23:44:04.401Z,13.80
2022-08-29T23:46:32.756Z,13.80
2022-08-29T23:49:02.311Z,13.70
2022-08-29T23:51:30.589Z,13.70
2022-08-29T23:53:58.891Z,13.70
2022-08-29T23:56:27.459Z,13.60
2022-08-29T23:58:56.694Z,13.60
